sensor_id;sensor_type;location;lat;lon;timestamp;pressure;altitude;pressure_sealevel;temperature;humidity
11444;BME280;5778;47.856;12.154;2023-01-28T00:01:49;96662.53;;;-0.60;100.00
11444;BME280;5778;47.856;12.154;2023-01-28T00:04:18;96658.25;;;-0.53;100.00
11444;BME280;5778;47.856;12.154;2023-01-28T00:06:45;96652.94;;;-0.45;100.00
11444;BME280;5778;47.856;12.154;2023-01-28T00:09:12;96658.47;;;-0.40;100.00
11444;BME280;5778;47.856;12.154;2023-01-28T00:11:44;96654.22;;;-0.41;100.00
11444;BME280;5778;47.856;12.154;2023-01-28T00:14:11;96656.50;;;-0.38;100.00
11444;BME280;5778;47.856;12.154;2023-01-28T00:16:39;96655.38;;;-0.43;100.00
11444;BME280;5778;47.856;12.154;2023-01-28T00:19:07;96658.75;;;-0.35;100.00
11444;BME280;5778;47.856;12.154;2023-01-28T00:21:34;96659.44;;;-0.41;100.00
11444;BME280;5778;47.856;12.154;2023-01-28T00:24:02;96657.84;;;-0.42;100.00
11444;BME280;5778;47.856;12.154;2023-01-28T00:26:34;96647.13;;;-0.32;100.00
11444;BME280;5778;47.856;12.154;2023-01-28T00:29:07;96661.06;;;-0.40;100.00
11444;BME280;5778;47.856;12.154;2023-01-28T00:31:35;96663.16;;;-0.36;100.00
11444;BME280;5778;47.856;12.154;2023-01-28T00:34:04;96667.56;;;-0.36;100.00
11444;BME280;5778;47.856;12.154;2023-01-28T00:36:32;96666.28;;;-0.40;100.00
11444;BME280;5778;47.856;12.154;2023-01-28T00:39:05;96657.84;;;-0.42;100.00
11444;BME280;5778;47.856;12.154;2023-01-28T00:41:33;96665.50;;;-0.40;100.00
11444;BME280;5778;47.856;12.154;2023-01-28T00:44:02;96652.38;;;-0.55;100.00
11444;BME280;5778;47.856;12.154;2023-01-28T00:46:33;96657.84;;;-0.64;100.00
11444;BME280;5778;47.856;12.154;2023-01-28T00:49:00;96653.38;;;-0.78;100.00
11444;BME280;5778;47.856;12.154;2023-01-28T00:51:27;96656.19;;;-0.88;100.00
11444;BME280;5778;47.856;12.154;2023-01-28T00:53:55;96663.41;;;-0.90;100.00
11444;BME280;5778;47.856;12.154;2023-01-28T00:56:22;96661.44;;;-0.88;100.00
11444;BME280;5778;47.856;12.154;2023-01-28T00:58:50;96662.88;;;-0.85;100.00
11444;BME280;5778;47.856;12.154;2023-01-28T01:01:21;96664.22;;;-0.89;100.00
11444;BME280;5778;47.856;12.154;2023-01-28T01:03:50;96658.19;;;-0.90;100.00
11444;BME280;5778;47.856;12.154;2023-01-28T01:06:23;96658.19;;;-0.90;100.00
11444;BME280;5778;47.856;12.154;2023-01-28T01:08:51;96660.25;;;-0.85;100.00
11444;BME280;5778;47.856;12.154;2023-01-28T01:11:18;96661.50;;;-0.96;100.00
11444;BME280;5778;47.856;12.154;2023-01-28T01:13:49;96666.09;;;-0.98;100.00
11444;BME280;5778;47.856;12.154;2023-01-28T01:16:16;96659.03;;;-0.97;100.00
11444;BME280;5778;47.856;12.154;2023-01-28T01:18:43;96656.28;;;-0.96;100.00
11444;BME280;5778;47.856;12.154;2023-01-28T01:21:15;96656.19;;;-0.88;100.00
11444;BME280;5778;47.856;12.154;2023-01-28T01:23:44;96656.19;;;-0.88;100.00
11444;BME280;5778;47.856;12.154;2023-01-28T01:26:12;96660.25;;;-0.85;100.00
11444;BME280;5778;47.856;12.154;2023-01-28T01:28:39;96654.94;;;-0.92;100.00
11444;BME280;5778;47.856;12.154;2023-01-28T01:31:09;96662.59;;;-0.90;100.00
11444;BME280;5778;47.856;12.154;2023-01-28T01:33:39;96655.97;;;-1.01;100.00
11444;BME280;5778;47.856;12.154;2023-01-28T01:36:07;96659.56;;;-1.02;100.00
11444;BME280;5778;47.856;12.154;2023-01-28T01:38:40;96667.00;;;-0.91;100.00
11444;BME280;5778;47.856;12.154;2023-01-28T01:41:08;96676.63;;;-0.91;100.00
11444;BME280;5778;47.856;12.154;2023-01-28T01:43:49;96669.78;;;-0.92;100.00
11444;BME280;5778;47.856;12.154;2023-01-28T01:46:19;96674.69;;;-0.89;100.00
11444;BME280;5778;47.856;12.154;2023-01-28T01:48:50;96672.31;;;-0.84;100.00
11444;BME280;5778;47.856;12.154;2023-01-28T01:51:22;96679.38;;;-0.85;100.00
11444;BME280;5778;47.856;12.154;2023-01-28T01:53:53;96679.69;;;-0.88;100.00
11444;BME280;5778;47.856;12.154;2023-01-28T01:56:27;96683.75;;;-0.85;100.00
11444;BME280;5778;47.856;12.154;2023-01-28T01:58:57;96687.50;;;-0.80;100.00
11444;BME280;5778;47.856;12.154;2023-01-28T02:01:28;96688.34;;;-0.87;100.00
11444;BME280;5778;47.856;12.154;2023-01-28T02:04:02;96679.53;;;-0.86;100.00
11444;BME280;5778;47.856;12.154;2023-01-28T02:06:30;96681.81;;;-0.83;100.00
11444;BME280;5778;47.856;12.154;2023-01-28T02:08:59;96685.38;;;-0.84;100.00
11444;BME280;5778;47.856;12.154;2023-01-28T02:11:29;96682.28;;;-0.80;100.00
11444;BME280;5778;47.856;12.154;2023-01-28T02:14:00;96688.94;;;-0.77;100.00
11444;BME280;5778;47.856;12.154;2023-01-28T02:16:38;96690.09;;;-0.80;100.00
11444;BME280;5778;47.856;12.154;2023-01-28T02:19:11;96693.88;;;-0.82;100.00
11444;BME280;5778;47.856;12.154;2023-01-28T02:22:05;96688.34;;;-0.87;100.00
11444;BME280;5778;47.856;12.154;2023-01-28T02:27:36;96689.44;;;-0.82;100.00
11444;BME280;5778;47.856;12.154;2023-01-28T02:30:12;96686.22;;;-0.84;100.00
11444;BME280;5778;47.856;12.154;2023-01-28T02:32:52;96689.19;;;-0.87;100.00
11444;BME280;5778;47.856;12.154;2023-01-28T02:35:28;96690.56;;;-0.76;100.00
11444;BME280;5778;47.856;12.154;2023-01-28T02:38:01;96691.59;;;-0.85;100.00
11444;BME280;5778;47.856;12.154;2023-01-28T02:40:33;96696.19;;;-0.87;100.00
11444;BME280;5778;47.856;12.154;2023-01-28T02:43:31;96691.97;;;-0.88;100.00
11444;BME280;5778;47.856;12.154;2023-01-28T02:46:02;96697.03;;;-0.95;100.00
11444;BME280;5778;47.856;12.154;2023-01-28T02:48:52;96692.94;;;-0.89;100.00
11444;BME280;5778;47.856;12.154;2023-01-28T02:51:26;96691.13;;;-0.89;100.00
11444;BME280;5778;47.856;12.154;2023-01-28T02:54:03;96698.34;;;-0.91;100.00
11444;BME280;5778;47.856;12.154;2023-01-28T02:56:37;96694.44;;;-0.95;100.00
11444;BME280;5778;47.856;12.154;2023-01-28T02:59:13;96696.56;;;-0.98;100.00
11444;BME280;5778;47.856;12.154;2023-01-28T03:02:19;96687.75;;;-0.97;100.00
11444;BME280;5778;47.856;12.154;2023-01-28T03:04:54;96694.78;;;-0.98;100.00
11444;BME280;5778;47.856;12.154;2023-01-28T03:07:26;96694.78;;;-0.98;100.00
11444;BME280;5778;47.856;12.154;2023-01-28T03:10:03;96697.41;;;-0.98;100.00
11444;BME280;5778;47.856;12.154;2023-01-28T03:12:31;96695.06;;;-0.93;100.00
11444;BME280;5778;47.856;12.154;2023-01-28T03:15:22;96696.56;;;-0.98;100.00
11444;BME280;5778;47.856;12.154;2023-01-28T03:18:12;96703.94;;;-1.02;100.00
11444;BME280;5778;47.856;12.154;2023-01-28T03:21:04;96707.34;;;-1.01;100.00
11444;BME280;5778;47.856;12.154;2023-01-28T03:23:55;96702.94;;;-1.01;100.00
11444;BME280;5778;47.856;12.154;2023-01-28T03:26:50;96707.19;;;-1.00;100.00
11444;BME280;5778;47.856;12.154;2023-01-28T03:29:41;96712.56;;;-1.01;100.00
11444;BME280;5778;47.856;12.154;2023-01-28T03:32:31;96714.97;;;-0.92;100.00
11444;BME280;5778;47.856;12.154;2023-01-28T03:35:21;96707.78;;;-0.90;100.00
11444;BME280;5778;47.856;12.154;2023-01-28T03:38:08;96715.28;;;-0.87;100.00
11444;BME280;5778;47.856;12.154;2023-01-28T03:40:50;96714.91;;;-0.84;100.00
11444;BME280;5778;47.856;12.154;2023-01-28T03:43:18;96720.00;;;-0.90;100.00
11444;BME280;5778;47.856;12.154;2023-01-28T03:45:48;96727.66;;;-0.89;100.00
11444;BME280;5778;47.856;12.154;2023-01-28T03:48:16;96731.91;;;-0.88;100.00
11444;BME280;5778;47.856;12.154;2023-01-28T03:50:47;96720.84;;;-0.90;100.00
11444;BME280;5778;47.856;12.154;2023-01-28T03:53:18;96729.00;;;-0.93;100.00
11444;BME280;5778;47.856;12.154;2023-01-28T03:55:51;96719.69;;;-0.87;100.00
11444;BME280;5778;47.856;12.154;2023-01-28T03:58:22;96726.06;;;-0.90;100.00
11444;BME280;5778;47.856;12.154;2023-01-28T04:00:52;96725.22;;;-0.90;100.00
11444;BME280;5778;47.856;12.154;2023-01-28T04:03:20;96723.59;;;-0.91;100.00
11444;BME280;5778;47.856;12.154;2023-01-28T04:06:02;96727.03;;;-0.91;100.00
11444;BME280;5778;47.856;12.154;2023-01-28T04:09:00;96721.28;;;-0.86;100.00
11444;BME280;5778;47.856;12.154;2023-01-28T04:12:06;96722.41;;;-0.81;100.00
11444;BME280;5778;47.856;12.154;2023-01-28T04:14:40;96722.06;;;-0.78;100.00
11444;BME280;5778;47.856;12.154;2023-01-28T04:17:14;96727.28;;;-0.78;100.00
11444;BME280;5778;47.856;12.154;2023-01-28T04:19:43;96729.09;;;-0.78;100.00
11444;BME280;5778;47.856;12.154;2023-01-28T04:22:11;96726.66;;;-0.80;100.00
11444;BME280;5778;47.856;12.154;2023-01-28T04:24:40;96736.44;;;-0.82;100.00
11444;BME280;5778;47.856;12.154;2023-01-28T04:27:08;96732.56;;;-0.86;100.00
11444;BME280;5778;47.856;12.154;2023-01-28T04:29:35;96736.16;;;-0.87;100.00
11444;BME280;5778;47.856;12.154;2023-01-28T04:32:22;96736.97;;;-0.86;100.00
11444;BME280;5778;47.856;12.154;2023-01-28T04:35:21;96737.66;;;-0.92;100.00
11444;BME280;5778;47.856;12.154;2023-01-28T04:38:16;96744.50;;;-0.91;100.00
11444;BME280;5778;47.856;12.154;2023-01-28T04:40:53;96742.69;;;-0.91;100.00
11444;BME280;5778;47.856;12.154;2023-01-28T04:43:32;96750.84;;;-0.94;100.00
11444;BME280;5778;47.856;12.154;2023-01-28T04:46:22;96746.94;;;-0.90;100.00
11444;BME280;5778;47.856;12.154;2023-01-28T04:49:01;96751.84;;;-0.95;100.00
11444;BME280;5778;47.856;12.154;2023-01-28T04:51:37;96754.06;;;-0.84;100.00
11444;BME280;5778;47.856;12.154;2023-01-28T04:54:14;96759.00;;;-0.89;100.00
11444;BME280;5778;47.856;12.154;2023-01-28T04:56:41;96758.19;;;-0.89;100.00
11444;BME280;5778;47.856;12.154;2023-01-28T04:59:10;96763.88;;;-0.86;100.00
11444;BME280;5778;47.856;12.154;2023-01-28T05:01:37;96765.25;;;-0.98;100.00
11444;BME280;5778;47.856;12.154;2023-01-28T05:04:05;96761.81;;;-0.98;100.00
11444;BME280;5778;47.856;12.154;2023-01-28T05:06:39;96762.47;;;-0.96;100.00
11444;BME280;5778;47.856;12.154;2023-01-28T05:09:10;96769.13;;;-0.94;100.00
11444;BME280;5778;47.856;12.154;2023-01-28T05:11:40;96768.81;;;-0.91;100.00
11444;BME280;5778;47.856;12.154;2023-01-28T05:14:07;96771.53;;;-0.84;100.00
11444;BME280;5778;47.856;12.154;2023-01-28T05:16:55;96764.91;;;-0.95;100.00
11444;BME280;5778;47.856;12.154;2023-01-28T05:19:23;96770.25;;;-0.88;100.00
11444;BME280;5778;47.856;12.154;2023-01-28T05:21:54;96771.34;;;-0.75;100.00
11444;BME280;5778;47.856;12.154;2023-01-28T05:24:30;96774.44;;;-0.79;100.00
11444;BME280;5778;47.856;12.154;2023-01-28T05:26:59;96774.41;;;-0.71;100.00
11444;BME280;5778;47.856;12.154;2023-01-28T05:29:26;96777.19;;;-0.73;100.00
11444;BME280;5778;47.856;12.154;2023-01-28T05:31:54;96779.34;;;-0.76;100.00
11444;BME280;5778;47.856;12.154;2023-01-28T05:34:21;96773.19;;;-0.83;100.00
11444;BME280;5778;47.856;12.154;2023-01-28T05:36:49;96778.88;;;-0.88;100.00
11444;BME280;5778;47.856;12.154;2023-01-28T05:39:31;96787.72;;;-0.89;100.00
11444;BME280;5778;47.856;12.154;2023-01-28T05:44:31;96792.63;;;-0.94;100.00
11444;BME280;5778;47.856;12.154;2023-01-28T05:47:07;96795.59;;;-0.97;100.00
11444;BME280;5778;47.856;12.154;2023-01-28T05:49:58;96802.06;;;-0.93;100.00
11444;BME280;5778;47.856;12.154;2023-01-28T05:52:55;96803.41;;;-0.97;100.00
11444;BME280;5778;47.856;12.154;2023-01-28T05:55:27;96799.81;;;-0.96;100.00
11444;BME280;5778;47.856;12.154;2023-01-28T05:57:56;96808.28;;;-0.94;100.00
11444;BME280;5778;47.856;12.154;2023-01-28T06:00:24;96811.06;;;-0.95;100.00
11444;BME280;5778;47.856;12.154;2023-01-28T06:02:53;96805.66;;;-0.94;100.00
11444;BME280;5778;47.856;12.154;2023-01-28T06:05:23;96813.66;;;-0.87;100.00
11444;BME280;5778;47.856;12.154;2023-01-28T06:07:52;96817.25;;;-0.88;100.00
11444;BME280;5778;47.856;12.154;2023-01-28T06:10:20;96814.16;;;-0.92;100.00
11444;BME280;5778;47.856;12.154;2023-01-28T06:12:47;96819.69;;;-0.87;100.00
11444;BME280;5778;47.856;12.154;2023-01-28T06:15:34;96816.41;;;-0.89;100.00
11444;BME280;5778;47.856;12.154;2023-01-28T06:18:15;96809.72;;;-0.83;100.00
11444;BME280;5778;47.856;12.154;2023-01-28T06:20:42;96819.81;;;-0.80;100.00
11444;BME280;5778;47.856;12.154;2023-01-28T06:23:09;96815.91;;;-0.84;100.00
11444;BME280;5778;47.856;12.154;2023-01-28T06:25:37;96818.25;;;-0.89;100.00
11444;BME280;5778;47.856;12.154;2023-01-28T06:28:08;96828.69;;;-0.89;100.00
11444;BME280;5778;47.856;12.154;2023-01-28T06:30:37;96831.91;;;-0.87;100.00
11444;BME280;5778;47.856;12.154;2023-01-28T06:33:04;96838.59;;;-0.85;100.00
11444;BME280;5778;47.856;12.154;2023-01-28T06:35:34;96841.38;;;-0.86;100.00
11444;BME280;5778;47.856;12.154;2023-01-28T06:38:01;96842.38;;;-0.87;100.00
11444;BME280;5778;47.856;12.154;2023-01-28T06:40:29;96842.22;;;-0.94;100.00
11444;BME280;5778;47.856;12.154;2023-01-28T06:43:15;96839.59;;;-0.94;100.00
11444;BME280;5778;47.856;12.154;2023-01-28T06:45:43;96851.31;;;-0.82;100.00
11444;BME280;5778;47.856;12.154;2023-01-28T06:48:11;96849.84;;;-0.84;100.00
11444;BME280;5778;47.856;12.154;2023-01-28T06:50:38;96847.06;;;-0.83;100.00
11444;BME280;5778;47.856;12.154;2023-01-28T06:53:06;96845.44;;;-0.84;100.00
11444;BME280;5778;47.856;12.154;2023-01-28T06:55:33;96848.53;;;-0.80;100.00
11444;BME280;5778;47.856;12.154;2023-01-28T06:58:02;96848.38;;;-0.79;100.00
11444;BME280;5778;47.856;12.154;2023-01-28T07:00:29;96847.00;;;-0.67;100.00
11444;BME280;5778;47.856;12.154;2023-01-28T07:03:01;96852.75;;;-0.71;100.00
11444;BME280;5778;47.856;12.154;2023-01-28T07:05:28;96859.44;;;-0.69;100.00
11444;BME280;5778;47.856;12.154;2023-01-28T07:07:56;96855.38;;;-0.79;100.00
11444;BME280;5778;47.856;12.154;2023-01-28T07:10:23;96858.81;;;-0.79;100.00
11444;BME280;5778;47.856;12.154;2023-01-28T07:12:55;96849.81;;;-0.76;100.00
11444;BME280;5778;47.856;12.154;2023-01-28T07:15:22;96862.69;;;-0.67;100.00
11444;BME280;5778;47.856;12.154;2023-01-28T07:17:50;96860.44;;;-0.78;100.00
11444;BME280;5778;47.856;12.154;2023-01-28T07:20:22;96866.66;;;-0.79;100.00
11444;BME280;5778;47.856;12.154;2023-01-28T07:22:50;96868.63;;;-0.81;100.00
11444;BME280;5778;47.856;12.154;2023-01-28T07:25:17;96870.72;;;-0.84;100.00
11444;BME280;5778;47.856;12.154;2023-01-28T07:27:46;96874.81;;;-0.82;100.00
11444;BME280;5778;47.856;12.154;2023-01-28T07:30:14;96874.84;;;-0.90;100.00
11444;BME280;5778;47.856;12.154;2023-01-28T07:32:44;96879.59;;;-1.01;100.00
11444;BME280;5778;47.856;12.154;2023-01-28T07:35:11;96881.03;;;-0.91;100.00
11444;BME280;5778;47.856;12.154;2023-01-28T07:37:39;96888.72;;;-0.89;100.00
11444;BME280;5778;47.856;12.154;2023-01-28T07:40:07;96887.88;;;-0.90;100.00
11444;BME280;5778;47.856;12.154;2023-01-28T07:42:42;96884.66;;;-0.92;100.00
11444;BME280;5778;47.856;12.154;2023-01-28T07:45:11;96895.88;;;-0.83;100.00
11444;BME280;5778;47.856;12.154;2023-01-28T07:47:38;96895.69;;;-0.82;100.00
11444;BME280;5778;47.856;12.154;2023-01-28T07:50:05;96895.69;;;-0.74;100.00
11444;BME280;5778;47.856;12.154;2023-01-28T07:52:33;96900.41;;;-0.77;100.00
11444;BME280;5778;47.856;12.154;2023-01-28T07:55:05;96898.28;;;-0.74;100.00
11444;BME280;5778;47.856;12.154;2023-01-28T07:57:33;96897.31;;;-0.73;100.00
11444;BME280;5778;47.856;12.154;2023-01-28T08:00:00;96904.16;;;-0.72;100.00
11444;BME280;5778;47.856;12.154;2023-01-28T08:02:34;96907.28;;;-0.76;100.00
11444;BME280;5778;47.856;12.154;2023-01-28T08:05:01;96909.03;;;-0.69;100.00
11444;BME280;5778;47.856;12.154;2023-01-28T08:07:28;96910.31;;;-0.57;100.00
11444;BME280;5778;47.856;12.154;2023-01-28T08:09:55;96913.22;;;-0.52;100.00
11444;BME280;5778;47.856;12.154;2023-01-28T08:12:51;96917.59;;;-0.44;100.00
11444;BME280;5778;47.856;12.154;2023-01-28T08:15:17;96917.75;;;-0.46;100.00
11444;BME280;5778;47.856;12.154;2023-01-28T08:17:44;96922.09;;;-0.69;100.00
11444;BME280;5778;47.856;12.154;2023-01-28T08:20:12;96930.25;;;-0.72;100.00
11444;BME280;5778;47.856;12.154;2023-01-28T08:22:41;96929.63;;;-0.82;100.00
11444;BME280;5778;47.856;12.154;2023-01-28T08:25:08;96935.50;;;-0.80;100.00
11444;BME280;5778;47.856;12.154;2023-01-28T08:27:35;96940.72;;;-0.80;100.00
11444;BME280;5778;47.856;12.154;2023-01-28T08:30:05;96935.16;;;-0.77;100.00
11444;BME280;5778;47.856;12.154;2023-01-28T08:32:39;96935.47;;;-0.64;100.00
11444;BME280;5778;47.856;12.154;2023-01-28T08:35:06;96944.41;;;-0.58;100.00
11444;BME280;5778;47.856;12.154;2023-01-28T08:37:33;96946.59;;;-0.78;100.00
11444;BME280;5778;47.856;12.154;2023-01-28T08:40:00;96948.41;;;-0.78;100.00
11444;BME280;5778;47.856;12.154;2023-01-28T08:42:29;96951.13;;;-0.64;100.00
11444;BME280;5778;47.856;12.154;2023-01-28T08:44:56;96951.09;;;-0.56;100.00
11444;BME280;5778;47.856;12.154;2023-01-28T08:47:24;96949.94;;;-0.45;100.00
11444;BME280;5778;47.856;12.154;2023-01-28T08:49:51;96952.38;;;-0.44;100.00
11444;BME280;5778;47.856;12.154;2023-01-28T08:52:34;96951.47;;;-0.67;100.00
11444;BME280;5778;47.856;12.154;2023-01-28T08:55:02;96949.50;;;-0.65;100.00
11444;BME280;5778;47.856;12.154;2023-01-28T08:57:28;96947.34;;;-0.53;100.00
11444;BME280;5778;47.856;12.154;2023-01-28T08:59:55;96951.78;;;-0.54;100.00
11444;BME280;5778;47.856;12.154;2023-01-28T09:02:44;96952.41;;;-0.60;100.00
11444;BME280;5778;47.856;12.154;2023-01-28T09:05:11;96949.47;;;-0.49;100.00
11444;BME280;5778;47.856;12.154;2023-01-28T09:07:39;96954.53;;;-0.55;100.00
11444;BME280;5778;47.856;12.154;2023-01-28T09:10:08;96952.41;;;-0.60;100.00
11444;BME280;5778;47.856;12.154;2023-01-28T09:12:39;96946.03;;;-0.57;100.00
11444;BME280;5778;47.856;12.154;2023-01-28T09:15:08;96952.00;;;-0.33;100.00
11444;BME280;5778;47.856;12.154;2023-01-28T09:17:35;96952.72;;;-0.47;100.00
11444;BME280;5778;47.856;12.154;2023-01-28T09:20:06;96954.38;;;-0.62;100.00
11444;BME280;5778;47.856;12.154;2023-01-28T09:22:35;96963.44;;;-0.34;100.00
11444;BME280;5778;47.856;12.154;2023-01-28T09:25:02;96962.22;;;-0.16;100.00
11444;BME280;5778;47.856;12.154;2023-01-28T09:27:29;96959.06;;;-0.03;100.00
11444;BME280;5778;47.856;12.154;2023-01-28T09:29:56;96959.44;;;-0.14;100.00
11444;BME280;5778;47.856;12.154;2023-01-28T09:32:59;96952.50;;;-0.29;100.00
11444;BME280;5778;47.856;12.154;2023-01-28T09:35:29;96961.81;;;-0.35;100.00
11444;BME280;5778;47.856;12.154;2023-01-28T09:37:56;96955.66;;;-0.12;100.00
11444;BME280;5778;47.856;12.154;2023-01-28T09:40:31;96968.19;;;0.01;100.00
11444;BME280;5778;47.856;12.154;2023-01-28T09:43:29;96970.84;;;-0.07;100.00
11444;BME280;5778;47.856;12.154;2023-01-28T09:46:02;96970.13;;;0.29;100.00
11444;BME280;5778;47.856;12.154;2023-01-28T09:51:07;96959.88;;;0.73;100.00
11444;BME280;5778;47.856;12.154;2023-01-28T09:53:58;96962.91;;;0.62;100.00
11444;BME280;5778;47.856;12.154;2023-01-28T09:56:29;96964.41;;;0.79;100.00
11444;BME280;5778;47.856;12.154;2023-01-28T09:59:17;96963.66;;;0.93;100.00
11444;BME280;5778;47.856;12.154;2023-01-28T10:01:52;96959.75;;;0.89;100.00
11444;BME280;5778;47.856;12.154;2023-01-28T10:04:28;96960.47;;;1.20;100.00
11444;BME280;5778;47.856;12.154;2023-01-28T10:07:14;96957.50;;;1.00;100.00
11444;BME280;5778;47.856;12.154;2023-01-28T10:09:47;96948.94;;;0.47;100.00
11444;BME280;5778;47.856;12.154;2023-01-28T10:12:49;96948.38;;;0.82;100.00
11444;BME280;5778;47.856;12.154;2023-01-28T10:15:47;96947.84;;;1.01;100.00
11444;BME280;5778;47.856;12.154;2023-01-28T10:18:24;96938.13;;;1.24;100.00
11444;BME280;5778;47.856;12.154;2023-01-28T10:21:01;96933.28;;;1.35;100.00
11444;BME280;5778;47.856;12.154;2023-01-28T10:26:56;96930.25;;;0.72;100.00
11444;BME280;5778;47.856;12.154;2023-01-28T10:29:24;96933.59;;;0.66;100.00
11444;BME280;5778;47.856;12.154;2023-01-28T10:31:54;96928.66;;;0.86;100.00
11444;BME280;5778;47.856;12.154;2023-01-28T10:34:28;96930.09;;;0.74;100.00
11444;BME280;5778;47.856;12.154;2023-01-28T10:36:56;96928.78;;;0.92;100.00
11444;BME280;5778;47.856;12.154;2023-01-28T10:39:24;96938.00;;;1.03;100.00
11444;BME280;5778;47.856;12.154;2023-01-28T10:41:52;96934.34;;;1.26;100.00
11444;BME280;5778;47.856;12.154;2023-01-28T10:44:30;96929.63;;;1.07;100.00
11444;BME280;5778;47.856;12.154;2023-01-28T10:47:01;96927.88;;;1.37;100.00
11444;BME280;5778;47.856;12.154;2023-01-28T10:49:30;96922.06;;;1.56;100.00
11444;BME280;5778;47.856;12.154;2023-01-28T10:51:58;96919.44;;;1.70;100.00
11444;BME280;5778;47.856;12.154;2023-01-28T10:54:57;96919.50;;;1.91;100.00
11444;BME280;5778;47.856;12.154;2023-01-28T10:57:24;96912.28;;;1.79;100.00
11444;BME280;5778;47.856;12.154;2023-01-28T10:59:53;96918.97;;;1.67;100.00
11444;BME280;5778;47.856;12.154;2023-01-28T11:02:25;96917.09;;;1.46;100.00
11444;BME280;5778;47.856;12.154;2023-01-28T11:05:03;96915.56;;;1.52;100.00
11444;BME280;5778;47.856;12.154;2023-01-28T11:07:30;96910.13;;;1.68;100.00
11444;BME280;5778;47.856;12.154;2023-01-28T11:09:58;96914.91;;;1.93;100.00
11444;BME280;5778;47.856;12.154;2023-01-28T11:12:31;96918.13;;;2.31;100.00
11444;BME280;5778;47.856;12.154;2023-01-28T11:15:01;96910.44;;;1.94;100.00
11444;BME280;5778;47.856;12.154;2023-01-28T11:17:33;96913.31;;;1.99;100.00
11444;BME280;5778;47.856;12.154;2023-01-28T11:20:09;96913.22;;;2.07;100.00
11444;BME280;5778;47.856;12.154;2023-01-28T11:23:03;96912.97;;;2.02;100.00
11444;BME280;5778;47.856;12.154;2023-01-28T11:25:33;96917.78;;;2.19;100.00
11444;BME280;5778;47.856;12.154;2023-01-28T11:28:02;96916.09;;;1.47;100.00
11444;BME280;5778;47.856;12.154;2023-01-28T11:30:34;96921.06;;;1.86;100.00
11444;BME280;5778;47.856;12.154;2023-01-28T11:33:26;96914.03;;;2.07;100.00
11444;BME280;5778;47.856;12.154;2023-01-28T11:35:56;96906.75;;;1.88;100.00
11444;BME280;5778;47.856;12.154;2023-01-28T11:38:25;96925.03;;;1.82;100.00
11444;BME280;5778;47.856;12.154;2023-01-28T11:40:53;96917.06;;;1.75;100.00
11444;BME280;5778;47.856;12.154;2023-01-28T11:43:35;96927.94;;;1.43;100.00
11444;BME280;5778;47.856;12.154;2023-01-28T11:46:28;96926.03;;;1.23;100.00
11444;BME280;5778;47.856;12.154;2023-01-28T11:49:07;96924.22;;;1.09;100.00
11444;BME280;5778;47.856;12.154;2023-01-28T11:51:39;96924.50;;;1.28;100.00
11444;BME280;5778;47.856;12.154;2023-01-28T11:54:20;96920.50;;;1.18;100.00
11444;BME280;5778;47.856;12.154;2023-01-28T11:57:14;96927.47;;;1.11;100.00
11444;BME280;5778;47.856;12.154;2023-01-28T12:03:01;96927.59;;;0.80;100.00
11444;BME280;5778;47.856;12.154;2023-01-28T12:05:41;96922.81;;;0.84;100.00
11444;BME280;5778;47.856;12.154;2023-01-28T12:08:16;96933.56;;;0.89;100.00
11444;BME280;5778;47.856;12.154;2023-01-28T12:10:50;96933.69;;;0.95;100.00
11444;BME280;5778;47.856;12.154;2023-01-28T12:13:31;96931.59;;;1.05;100.00
11444;BME280;5778;47.856;12.154;2023-01-28T12:16:16;96929.47;;;1.09;100.00
11444;BME280;5778;47.856;12.154;2023-01-28T12:19:05;96925.06;;;0.50;100.00
11444;BME280;5778;47.856;12.154;2023-01-28T12:21:44;96926.19;;;0.70;100.00
11444;BME280;5778;47.856;12.154;2023-01-28T12:24:29;96929.53;;;1.01;100.00
11444;BME280;5778;47.856;12.154;2023-01-28T12:27:06;96936.78;;;1.13;100.00
11444;BME280;5778;47.856;12.154;2023-01-28T12:29:38;96931.38;;;1.15;100.00
11444;BME280;5778;47.856;12.154;2023-01-28T12:32:17;96933.53;;;1.26;100.00
11444;BME280;5778;47.856;12.154;2023-01-28T12:35:17;96929.81;;;1.06;100.00
11444;BME280;5778;47.856;12.154;2023-01-28T12:37:58;96934.38;;;0.89;100.00
11444;BME280;5778;47.856;12.154;2023-01-28T12:40:49;96936.66;;;1.07;100.00
11444;BME280;5778;47.856;12.154;2023-01-28T12:43:43;96935.19;;;0.90;100.00
11444;BME280;5778;47.856;12.154;2023-01-28T12:46:17;96931.88;;;0.96;100.00
11444;BME280;5778;47.856;12.154;2023-01-28T12:48:53;96941.53;;;0.95;100.00
11444;BME280;5778;47.856;12.154;2023-01-28T12:51:27;96934.84;;;0.93;100.00
11444;BME280;5778;47.856;12.154;2023-01-28T12:54:23;96938.63;;;0.90;100.00
11444;BME280;5778;47.856;12.154;2023-01-28T12:56:53;96940.63;;;1.03;100.00
11444;BME280;5778;47.856;12.154;2023-01-28T12:59:26;96943.53;;;1.08;100.00
11444;BME280;5778;47.856;12.154;2023-01-28T13:02:04;96942.34;;;1.10;100.00
11444;BME280;5778;47.856;12.154;2023-01-28T13:04:40;96946.16;;;1.08;100.00
11444;BME280;5778;47.856;12.154;2023-01-28T13:07:13;96956.72;;;1.14;100.00
11444;BME280;5778;47.856;12.154;2023-01-28T13:09:47;96947.53;;;1.33;100.00
11444;BME280;5778;47.856;12.154;2023-01-28T13:12:16;96939.31;;;1.36;100.00
11444;BME280;5778;47.856;12.154;2023-01-28T13:14:45;96944.94;;;1.47;100.00
11444;BME280;5778;47.856;12.154;2023-01-28T13:17:25;96947.72;;;1.46;100.00
11444;BME280;5778;47.856;12.154;2023-01-28T13:19:53;96947.72;;;1.46;100.00
11444;BME280;5778;47.856;12.154;2023-01-28T13:22:36;96952.25;;;1.52;100.00
11444;BME280;5778;47.856;12.154;2023-01-28T13:25:19;96947.38;;;1.49;100.00
11444;BME280;5778;47.856;12.154;2023-01-28T13:27:54;96950.53;;;1.73;100.00
11444;BME280;5778;47.856;12.154;2023-01-28T13:30:25;96949.97;;;1.92;100.00
11444;BME280;5778;47.856;12.154;2023-01-28T13:36:02;96950.09;;;1.70;100.00
11444;BME280;5778;47.856;12.154;2023-01-28T13:38:34;96958.03;;;1.76;100.00
11444;BME280;5778;47.856;12.154;2023-01-28T13:41:02;96949.72;;;1.73;100.00
11444;BME280;5778;47.856;12.154;2023-01-28T13:43:47;96957.75;;;1.71;100.00
11444;BME280;5778;47.856;12.154;2023-01-28T13:46:27;96977.47;;;1.67;100.00